Time;durP1;ratioP1;P1;durP2;ratioP2;P2;SDS_P1;SDS_P2;PMS_P1;PMS_P2;Temp;Humidity;BMP_temperature;BMP_pressure;BME280_temperature;BME280_humidity;BME280_pressure;Samples;Min_cycle;Max_cycle;Signal;HPM_P1;HPM_P2
2021/12/31 04:53:07;;;;;;;4.05;1.70;;;;;;;10.64;81.87;98712.16;5298134;23;20039;-47
2021/12/31 04:55:32;;;;;;;5.40;1.60;;;;;;;10.63;82.45;98713.09;4957284;28;20031;-50
2021/12/31 04:57:57;;;;;;;4.05;1.55;;;;;;;10.77;81.95;98714.00;4960418;28;20037;-48
2021/12/31 05:00:23;;;;;;;6.15;1.92;;;;;;;10.77;81.67;98706.13;4959748;28;20065;-48
2021/12/31 05:02:48;;;;;;;5.32;1.60;;;;;;;10.76;81.75;98707.09;4959540;28;20483;-47
2021/12/31 05:05:13;;;;;;;5.97;1.80;;;;;;;10.55;82.84;98709.25;4950231;28;20028;-49
2021/12/31 05:07:39;;;;;;;4.60;1.60;;;;;;;10.66;81.70;98702.41;4954210;29;20038;-50
2021/12/31 05:10:05;;;;;;;6.72;1.98;;;;;;;10.56;81.94;98696.03;4958065;28;20034;-48
2021/12/31 05:12:33;;;;;;;5.70;1.75;;;;;;;10.67;81.06;98705.88;4958642;28;20027;-48
2021/12/31 05:15:01;;;;;;;4.00;1.38;;;;;;;10.61;81.24;98709.72;4957609;28;20398;-48
2021/12/31 05:17:26;;;;;;;4.18;1.42;;;;;;;10.63;81.14;98707.84;4954911;28;20090;-51
2021/12/31 05:19:51;;;;;;;3.08;1.50;;;;;;;10.76;81.17;98707.09;4957530;28;20431;-49
2021/12/31 05:22:17;;;;;;;4.40;1.38;;;;;;;10.68;80.80;98716.28;4957428;28;20069;-48
2021/12/31 05:24:42;;;;;;;5.05;1.52;;;;;;;10.61;80.00;98699.22;4957669;28;20024;-50
2021/12/31 05:27:07;;;;;;;4.80;1.40;;;;;;;10.57;80.11;98708.22;4957680;28;20031;-51
2021/12/31 05:29:34;;;;;;;3.88;1.50;;;;;;;10.59;80.05;98700.25;4955873;28;20027;-50
2021/12/31 05:31:59;;;;;;;3.50;1.55;;;;;;;10.51;80.53;98700.72;4957930;28;20051;-47
2021/12/31 05:34:24;;;;;;;6.38;1.50;;;;;;;10.48;81.16;98695.66;4957337;28;20027;-49
2021/12/31 05:36:50;;;;;;;6.32;1.70;;;;;;;10.54;80.39;98697.06;4957446;28;20036;-48
2021/12/31 05:39:15;;;;;;;5.53;1.70;;;;;;;10.46;80.90;98689.69;4953496;28;20078;-49
2021/12/31 05:41:40;;;;;;;4.10;1.48;;;;;;;10.50;80.51;98693.78;4956791;28;20027;-49
2021/12/31 05:44:07;;;;;;;4.07;1.40;;;;;;;10.55;80.16;98699.59;4957269;28;20023;-49
2021/12/31 05:46:32;;;;;;;4.95;1.60;;;;;;;10.56;80.15;98698.66;4957566;28;20505;-50
2021/12/31 05:48:58;;;;;;;5.50;1.85;;;;;;;10.61;79.92;98693.13;4957192;28;20031;-48
2021/12/31 05:51:26;;;;;;;4.57;1.58;;;;;;;10.58;79.44;98699.41;4957165;28;20027;-48
2021/12/31 05:53:52;;;;;;;4.75;1.58;;;;;;;10.49;81.06;98702.56;4956339;28;20015;-48
2021/12/31 05:56:17;;;;;;;4.95;1.60;;;;;;;10.54;80.55;98697.91;4956936;28;20043;-50
2021/12/31 05:58:42;;;;;;;5.95;1.77;;;;;;;10.53;80.56;98704.09;4957342;28;20054;-49
2021/12/31 06:01:08;;;;;;;5.32;1.73;;;;;;;10.57;80.27;98697.72;4956893;28;20041;-47
2021/12/31 06:03:33;;;;;;;5.72;1.70;;;;;;;10.53;80.79;98695.38;4956446;28;20427;-47
2021/12/31 06:05:58;;;;;;;6.78;1.88;;;;;;;10.49;80.83;98699.94;4957211;28;20031;-50
2021/12/31 06:08:24;;;;;;;4.63;1.83;;;;;;;10.53;80.48;98696.25;4956676;28;20522;-48
2021/12/31 06:10:49;;;;;;;7.60;2.20;;;;;;;10.51;81.15;98698.09;4956693;28;20057;-50
2021/12/31 06:13:15;;;;;;;5.13;1.70;;;;;;;10.55;80.36;98696.13;4955913;29;20491;-48
2021/12/31 06:15:42;;;;;;;6.13;1.77;;;;;;;10.47;81.01;98688.72;4957024;28;20045;-48
2021/12/31 06:18:08;;;;;;;5.85;2.10;;;;;;;10.36;81.50;98689.38;4957737;28;20495;-51
2021/12/31 06:20:34;;;;;;;4.22;1.45;;;;;;;10.26;81.70;98693.50;4956955;28;20042;-49
2021/12/31 06:23:00;;;;;;;5.95;1.63;;;;;;;10.27;82.45;98689.09;4957111;28;20030;-50
2021/12/31 06:25:26;;;;;;;5.30;1.95;;;;;;;10.23;81.86;98683.97;4956966;28;20034;-49
2021/12/31 06:27:51;;;;;;;6.82;1.70;;;;;;;10.31;82.65;98686.19;4956845;28;20098;-48
2021/12/31 06:30:17;;;;;;;7.10;2.00;;;;;;;10.29;82.74;98688.06;4957429;28;20063;-50
2021/12/31 06:32:42;;;;;;;5.85;1.67;;;;;;;10.31;82.64;98687.97;4957018;28;20027;-49
2021/12/31 06:35:07;;;;;;;6.63;2.22;;;;;;;10.18;81.97;98675.53;4957186;28;20035;-49
2021/12/31 06:37:33;;;;;;;4.93;1.83;;;;;;;10.24;82.43;98690.06;4957065;28;20034;-51
2021/12/31 06:40:04;;;;;;;6.22;1.92;;;;;;;10.30;81.62;98688.91;4957322;28;20031;-49
2021/12/31 06:42:29;;;;;;;6.05;1.85;;;;;;;10.30;82.64;98686.28;4956919;28;20529;-49
2021/12/31 06:44:54;;;;;;;5.85;1.95;;;;;;;10.30;82.39;98688.91;4957092;28;20042;-49
2021/12/31 06:47:20;;;;;;;5.22;1.70;;;;;;;10.35;82.43;98689.47;4956687;28;20035;-50
2021/12/31 06:49:45;;;;;;;5.95;2.58;;;;;;;10.32;82.14;98682.59;4957421;28;20023;-50
2021/12/31 06:52:10;;;;;;;5.32;1.70;;;;;;;10.33;81.85;98693.97;4956869;28;20034;-47
2021/12/31 06:54:36;;;;;;;7.72;2.05;;;;;;;10.28;82.27;98681.09;4956895;28;20027;-48
2021/12/31 06:57:03;;;;;;;6.63;2.20;;;;;;;10.21;82.87;98693.69;4956817;28;20094;-46
2021/12/31 06:59:29;;;;;;;7.82;2.40;;;;;;;10.31;82.02;98701.06;4956339;28;20039;-48
2021/12/31 07:01:55;;;;;;;6.35;2.15;;;;;;;10.25;82.65;98714.50;4955436;28;20023;-50
2021/12/31 07:04:20;;;;;;;6.57;1.80;;;;;;;10.30;82.48;98709.88;4956203;28;20535;-47
2021/12/31 07:06:45;;;;;;;5.13;1.90;;;;;;;10.17;82.53;98705.31;4956042;28;20098;-48
2021/12/31 07:09:11;;;;;;;5.90;1.85;;;;;;;10.39;82.00;98709.31;4955212;28;20035;-49
2021/12/31 07:11:36;;;;;;;4.53;1.75;;;;;;;10.27;82.69;98694.31;4955605;28;20035;-50
2021/12/31 07:14:02;;;;;;;5.78;2.33;;;;;;;10.40;81.76;98716.25;4955657;28;20023;-49
2021/12/31 07:16:27;;;;;;;8.20;1.83;;;;;;;10.23;82.88;98706.75;4956256;28;20027;-48
2021/12/31 07:18:53;;;;;;;6.60;2.15;;;;;;;10.26;82.75;98705.75;4955812;28;20031;-51
2021/12/31 07:21:18;;;;;;;6.15;1.80;;;;;;;10.28;82.48;98711.72;4955592;28;20487;-48
2021/12/31 07:23:43;;;;;;;6.43;2.13;;;;;;;10.26;83.23;98724.09;4955841;28;20086;-48
2021/12/31 07:26:09;;;;;;;5.55;1.77;;;;;;;10.42;81.86;98724.84;4954978;28;20387;-48
2021/12/31 07:28:34;;;;;;;5.15;2.08;;;;;;;10.25;81.94;98719.75;4955343;28;20245;-51
2021/12/31 07:31:00;;;;;;;5.28;2.00;;;;;;;10.35;81.86;98736.66;4955910;28;20023;-48
2021/12/31 07:33:25;;;;;;;5.85;1.80;;;;;;;10.34;81.96;98740.22;4955541;28;20031;-52
2021/12/31 07:35:51;;;;;;;6.35;1.98;;;;;;;10.41;81.23;98733.69;4955722;28;20391;-49
2021/12/31 07:38:21;;;;;;;7.00;1.80;;;;;;;10.34;81.66;98722.69;4955169;28;20491;-48
2021/12/31 07:40:51;;;;;;;5.05;1.90;;;;;;;10.22;82.17;98732.13;4955631;28;20035;-50
2021/12/31 07:43:16;;;;;;;6.13;1.90;;;;;;;10.39;81.60;98740.78;4955502;28;20019;-49
2021/12/31 07:45:42;;;;;;;5.53;2.22;;;;;;;10.32;81.49;98731.59;4957169;28;20027;-52
2021/12/31 07:48:07;;;;;;;3.85;1.70;;;;;;;10.39;81.30;98728.53;4959641;28;20046;-48
2021/12/31 07:50:33;;;;;;;5.47;1.50;;;;;;;10.52;80.77;98733.88;4961240;28;20073;-53
2021/12/31 07:52:58;;;;;;;5.03;1.80;;;;;;;10.56;80.40;98748.47;4960423;28;20037;-52
2021/12/31 07:55:24;;;;;;;4.63;1.60;;;;;;;10.68;79.91;98742.50;4958867;28;20034;-50
2021/12/31 07:57:49;;;;;;;5.32;2.03;;;;;;;10.69;80.04;98744.19;4958365;28;20031;-50
2021/12/31 08:00:15;;;;;;;5.97;1.70;;;;;;;10.59;80.37;98748.31;4958296;28;20035;-52
2021/12/31 08:02:40;;;;;;;5.68;1.98;;;;;;;10.59;80.57;98758.78;4958379;28;20034;-50
2021/12/31 08:05:06;;;;;;;7.13;2.42;;;;;;;10.66;80.40;98754.03;4957757;28;20447;-49
2021/12/31 08:07:31;;;;;;;8.52;2.55;;;;;;;10.63;80.12;98749.81;4959460;28;20105;-49
2021/12/31 08:09:57;;;;;;;6.80;2.30;;;;;;;10.63;80.40;98749.81;4958009;28;20027;-52
2021/12/31 08:12:22;;;;;;;6.07;2.08;;;;;;;10.81;80.27;98752.28;4958967;28;20384;-49
2021/12/31 08:14:48;;;;;;;6.28;1.95;;;;;;;10.67;79.70;98746.06;4958119;28;20031;-50
2021/12/31 08:17:13;;;;;;;3.92;1.70;;;;;;;10.63;80.58;98748.97;4958214;28;20042;-47
2021/12/31 08:19:39;;;;;;;5.13;1.73;;;;;;;10.70;79.63;98739.78;4958947;28;20030;-50
2021/12/31 08:22:04;;;;;;;5.07;2.10;;;;;;;10.65;80.15;98750.56;4957063;28;20471;-52
2021/12/31 08:24:29;;;;;;;4.20;1.90;;;;;;;10.72;80.13;98752.81;4959103;28;20023;-50
2021/12/31 08:26:55;;;;;;;4.47;1.80;;;;;;;10.75;79.71;98745.59;4958682;28;20415;-48
2021/12/31 08:29:20;;;;;;;4.55;1.80;;;;;;;10.71;79.89;98735.41;4959190;28;20045;-52
2021/12/31 08:31:46;;;;;;;5.25;1.80;;;;;;;10.79;79.95;98735.78;4957949;28;20027;-50
2021/12/31 08:34:11;;;;;;;5.20;1.92;;;;;;;10.79;79.46;98727.91;4958774;28;20041;-51
2021/12/31 08:36:37;;;;;;;4.53;1.60;;;;;;;10.76;79.76;98734.16;4958830;28;20062;-50
2021/12/31 08:39:12;;;;;;;5.25;1.83;;;;;;;10.79;79.32;98730.53;4959625;28;20027;-52
2021/12/31 08:41:38;;;;;;;7.30;1.63;;;;;;;10.77;79.75;98728.00;4958663;28;20047;-50
2021/12/31 08:44:04;;;;;;;5.47;1.80;;;;;;;10.91;79.18;98732.41;4959690;28;20019;-49
2021/12/31 08:46:31;;;;;;;4.28;1.58;;;;;;;11.00;78.84;98731.81;4957419;29;20027;-55
2021/12/31 08:48:56;;;;;;;5.18;1.85;;;;;;;11.11;78.58;98736.41;4957561;28;20039;-50
2021/12/31 08:51:21;;;;;;;4.53;1.80;;;;;;;11.10;78.16;98727.69;4958553;28;20038;-57
2021/12/31 08:53:47;;;;;;;5.25;1.75;;;;;;;11.00;77.83;98726.56;4958871;28;20525;-49
2021/12/31 08:56:12;;;;;;;4.10;1.60;;;;;;;11.06;78.42;98726.19;4957732;28;20041;-50
2021/12/31 08:58:37;;;;;;;4.85;1.52;;;;;;;11.13;78.02;98722.25;4961660;28;20031;-48
2021/12/31 09:01:03;;;;;;;4.85;1.90;;;;;;;11.15;77.98;98723.00;4961091;28;20098;-49
2021/12/31 09:03:28;;;;;;;4.10;1.77;;;;;;;11.20;77.26;98721.88;4957923;28;20047;-50
2021/12/31 09:05:53;;;;;;;5.97;1.70;;;;;;;11.24;77.91;98712.84;4957510;28;20073;-49
2021/12/31 09:08:19;;;;;;;6.43;1.70;;;;;;;11.12;77.70;98709.22;4957625;28;20038;-48
2021/12/31 09:10:44;;;;;;;6.75;1.80;;;;;;;11.31;77.80;98716.78;4956774;28;20026;-49
2021/12/31 09:13:10;;;;;;;4.80;1.67;;;;;;;11.36;77.30;98712.94;4958018;28;20215;-49
2021/12/31 09:15:35;;;;;;;4.60;1.52;;;;;;;11.38;77.38;98718.06;4959289;28;20491;-50
2021/12/31 09:18:00;;;;;;;3.67;1.60;;;;;;;11.44;76.87;98715.06;4957182;29;20403;-47
2021/12/31 09:20:27;;;;;;;4.90;1.90;;;;;;;11.48;76.93;98715.69;4957986;28;20027;-48
2021/12/31 09:22:53;;;;;;;5.43;1.83;;;;;;;11.47;77.14;98725.38;4956900;28;20035;-49
2021/12/31 09:25:18;;;;;;;6.22;1.80;;;;;;;11.32;76.56;98710.56;4957866;28;20050;-49
2021/12/31 09:27:44;;;;;;;4.80;1.77;;;;;;;11.37;76.59;98714.59;4959197;28;20027;-51
2021/12/31 09:30:10;;;;;;;5.03;1.83;;;;;;;11.43;76.93;98717.78;4955672;28;20513;-51
2021/12/31 09:32:35;;;;;;;5.10;1.63;;;;;;;11.71;75.80;98712.44;4954201;28;20043;-48
2021/12/31 09:35:01;;;;;;;3.90;1.42;;;;;;;11.60;75.00;98712.28;4955701;28;20019;-48
2021/12/31 09:37:26;;;;;;;5.57;1.65;;;;;;;11.61;75.25;98712.19;4955468;28;20399;-50
2021/12/31 09:39:51;;;;;;;5.35;1.60;;;;;;;11.63;74.59;98715.56;4955841;28;20027;-48
2021/12/31 09:42:17;;;;;;;4.20;1.75;;;;;;;11.73;75.22;98714.94;4955043;28;20097;-48
2021/12/31 09:44:44;;;;;;;5.32;1.58;;;;;;;11.65;74.97;98708.41;4955349;28;20033;-52
2021/12/31 09:47:13;;;;;;;5.03;1.63;;;;;;;11.68;74.63;98717.88;4955924;28;20038;-50
2021/12/31 09:49:38;;;;;;;5.90;1.95;;;;;;;11.72;74.71;98714.13;4955573;28;20027;-49
2021/12/31 09:52:04;;;;;;;5.13;1.65;;;;;;;11.75;74.92;98710.44;4953745;28;20027;-51
2021/12/31 09:54:29;;;;;;;6.10;1.80;;;;;;;11.76;73.89;98710.34;4954546;28;20023;-51
2021/12/31 09:56:55;;;;;;;5.88;1.80;;;;;;;11.78;73.87;98697.13;4953907;29;20031;-50
2021/12/31 09:59:23;;;;;;;4.82;1.70;;;;;;;11.78;73.38;98687.44;4954528;28;20106;-48
2021/12/31 10:01:50;;;;;;;4.45;1.35;;;;;;;11.93;72.64;98698.75;4954057;28;20499;-47
2021/12/31 10:04:16;;;;;;;5.55;1.67;;;;;;;12.01;73.31;98683.31;4935604;29;20031;-49
2021/12/31 15:08:46;;;;;;;6.72;2.60;;;;;;;12.43;72.69;98535.84;5494656;23;20063;-49
2021/12/31 15:11:11;;;;;;;6.03;2.20;;;;;;;12.29;72.71;98524.50;4952778;29;20035;-48
2021/12/31 15:13:36;;;;;;;6.43;2.38;;;;;;;12.23;73.24;98519.66;4950398;29;20020;-49
2021/12/31 15:16:03;;;;;;;6.28;2.45;;;;;;;12.26;73.68;98498.41;4952781;29;20435;-50
2021/12/31 15:18:28;;;;;;;6.55;2.10;;;;;;;12.03;73.99;98486.88;4944757;28;20058;-50
2021/12/31 15:20:53;;;;;;;4.70;1.90;;;;;;;11.99;74.52;98490.66;4933965;29;20395;-51
2021/12/31 15:23:19;;;;;;;4.82;1.75;;;;;;;11.81;75.11;98505.91;4933717;29;20064;-50
2021/12/31 15:25:44;;;;;;;5.22;2.22;;;;;;;11.90;74.52;98520.22;4933013;29;20031;-52
2021/12/31 15:28:10;;;;;;;6.05;2.15;;;;;;;11.85;74.25;98525.78;4933661;29;20054;-50
2021/12/31 15:30:37;;;;;;;6.32;2.88;;;;;;;11.64;75.16;98528.06;4934204;29;20140;-52
2021/12/31 15:33:03;;;;;;;8.05;2.90;;;;;;;11.52;75.93;98528.88;4934938;29;20482;-52
2021/12/31 15:35:30;;;;;;;6.70;2.85;;;;;;;11.43;76.75;98533.94;4934555;29;20035;-50
2021/12/31 15:37:55;;;;;;;7.50;2.78;;;;;;;11.38;76.39;98542.09;4934388;29;20514;-52
2021/12/31 15:40:23;;;;;;;5.93;2.42;;;;;;;11.08;77.30;98551.06;4935075;29;20031;-52
2021/12/31 15:42:49;;;;;;;5.47;2.45;;;;;;;11.40;76.03;98571.75;4934524;29;20034;-52
2021/12/31 15:45:16;;;;;;;14.45;3.45;;;;;;;11.43;75.85;98582.06;4934740;29;20024;-52
2021/12/31 15:47:42;;;;;;;7.85;2.90;;;;;;;11.32;76.39;98584.53;4933703;29;20083;-50
2021/12/31 15:50:07;;;;;;;14.30;6.60;;;;;;;11.00;77.68;98584.84;4934478;29;20028;-49
2021/12/31 15:52:33;;;;;;;17.58;7.45;;;;;;;10.90;78.24;98573.25;4934412;29;20670;-51
2021/12/31 15:54:58;;;;;;;26.92;13.23;;;;;;;10.82;79.05;98563.25;4934034;29;20484;-52
2021/12/31 15:57:24;;;;;;;35.78;17.65;;;;;;;10.81;78.70;98561.56;4933882;29;20043;-49
2021/12/31 15:59:50;;;;;;;22.75;10.48;;;;;;;10.84;78.80;98552.63;4934283;29;20472;-48
2021/12/31 16:02:15;;;;;;;10.50;4.60;;;;;;;10.66;78.29;98558.13;4934129;29;20399;-47
2021/12/31 16:04:41;;;;;;;22.25;4.32;;;;;;;10.39;78.95;98562.47;4933526;29;20020;-49
2021/12/31 16:07:06;;;;;;;10.80;4.13;;;;;;;10.39;79.07;98565.97;4935765;29;20079;-52
2021/12/31 16:09:32;;;;;;;7.35;3.20;;;;;;;10.32;79.39;98551.50;4936809;29;20032;-49
2021/12/31 16:11:57;;;;;;;8.90;3.40;;;;;;;10.26;79.77;98566.81;4937486;29;20115;-51
2021/12/31 16:14:22;;;;;;;9.75;3.42;;;;;;;10.09;80.73;98562.56;4936971;29;20035;-49
2021/12/31 16:16:48;;;;;;;9.20;4.78;;;;;;;10.15;80.96;98565.66;4938276;29;20062;-48
2021/12/31 16:19:13;;;;;;;9.98;4.97;;;;;;;10.08;80.92;98566.97;4937232;29;20042;-50
2021/12/31 16:21:39;;;;;;;9.90;4.72;;;;;;;10.12;81.10;98563.22;4937333;29;20109;-48
2021/12/31 16:24:05;;;;;;;12.73;6.97;;;;;;;9.91;81.33;98567.97;4936684;29;20034;-48
2021/12/31 16:26:31;;;;;;;12.68;7.43;;;;;;;9.98;81.10;98582.41;4937551;29;20436;-48
2021/12/31 16:28:56;;;;;;;13.32;8.07;;;;;;;9.92;82.27;98581.91;4936860;29;20554;-51
2021/12/31 16:31:22;;;;;;;16.48;9.25;;;;;;;9.85;82.45;98588.47;4937093;29;20031;-49
2021/12/31 16:33:47;;;;;;;17.92;9.40;;;;;;;9.80;81.88;98582.63;4936237;29;20573;-48
2021/12/31 16:36:13;;;;;;;19.90;10.02;;;;;;;9.82;82.30;98583.41;4926479;29;20059;-50
2021/12/31 16:38:38;;;;;;;15.63;9.77;;;;;;;9.65;82.66;98582.63;4934052;29;20035;-48
2021/12/31 16:41:03;;;;;;;15.35;9.70;;;;;;;9.65;83.07;98587.00;4935034;29;20049;-49
2021/12/31 16:43:29;;;;;;;17.52;9.65;;;;;;;9.61;82.88;98580.28;4934140;29;20369;-48
2021/12/31 16:45:56;;;;;;;15.63;9.23;;;;;;;9.72;83.07;98572.63;4935199;29;20028;-50
2021/12/31 16:48:21;;;;;;;16.95;8.65;;;;;;;9.61;83.57;98572.41;4934257;29;20024;-47
2021/12/31 16:50:47;;;;;;;15.63;9.13;;;;;;;9.54;83.43;98571.94;4934870;29;20083;-48
2021/12/31 16:53:12;;;;;;;26.48;14.38;;;;;;;9.59;83.17;98577.72;4933037;29;20074;-46
2021/12/31 16:55:39;;;;;;;30.73;15.32;;;;;;;9.50;83.75;98588.75;4922473;29;20040;-47
2021/12/31 16:58:04;;;;;;;18.48;10.80;;;;;;;9.20;83.78;98594.81;4922906;29;20396;-50
2021/12/31 17:00:30;;;;;;;19.60;11.25;;;;;;;9.14;83.91;98597.78;4934120;29;20497;-47
2021/12/31 17:02:55;;;;;;;14.52;7.75;;;;;;;9.04;84.42;98601.84;4935541;29;20161;-48
2021/12/31 17:05:21;;;;;;;11.75;6.57;;;;;;;8.99;85.42;98604.72;4934415;29;20028;-48
2021/12/31 17:07:46;;;;;;;14.05;6.80;;;;;;;8.96;84.70;98609.28;4934827;29;20102;-49
2021/12/31 17:10:17;;;;;;;15.25;8.38;;;;;;;9.06;84.76;98610.44;4934546;29;20032;-47
2021/12/31 17:12:46;;;;;;;15.15;8.57;;;;;;;8.95;84.85;98605.81;4933372;29;20471;-49
2021/12/31 17:15:12;;;;;;;14.70;7.20;;;;;;;8.88;84.75;98608.84;4933747;29;20036;-50
2021/12/31 17:17:37;;;;;;;13.98;7.90;;;;;;;8.91;84.52;98596.47;4932304;29;20039;-48
2021/12/31 17:20:03;;;;;;;13.32;7.60;;;;;;;8.92;84.35;98594.69;4934107;29;20439;-48
2021/12/31 17:22:29;;;;;;;13.65;7.65;;;;;;;8.82;84.44;98601.34;4933195;29;20036;-47
2021/12/31 17:24:54;;;;;;;17.02;9.05;;;;;;;8.76;85.12;98592.91;4934028;29;20012;-51
2021/12/31 17:27:20;;;;;;;16.63;8.93;;;;;;;8.70;84.68;98601.06;4933507;29;20475;-47
2021/12/31 17:29:45;;;;;;;16.42;8.85;;;;;;;8.88;84.42;98606.22;4933199;29;20034;-51
2021/12/31 17:32:10;;;;;;;15.10;7.57;;;;;;;9.04;83.69;98607.91;4934137;29;20024;-47
2021/12/31 17:34:36;;;;;;;15.38;7.50;;;;;;;9.18;83.03;98622.00;4932966;29;20078;-47
2021/12/31 17:37:01;;;;;;;18.85;11.10;;;;;;;9.36;82.56;98630.56;4933675;29;20031;-48
2021/12/31 17:39:27;;;;;;;19.17;11.18;;;;;;;9.36;82.48;98634.06;4933235;29;20043;-49
2021/12/31 17:41:52;;;;;;;17.23;9.57;;;;;;;9.38;82.57;98636.59;4933461;29;20031;-47
2021/12/31 17:44:17;;;;;;;16.70;7.85;;;;;;;9.26;83.22;98632.91;4933098;29;20394;-46
2021/12/31 17:46:43;;;;;;;201.38;60.08;;;;;;;9.23;83.67;98623.44;4934598;29;20094;-47
2021/12/31 17:49:08;;;;;;;192.23;61.30;;;;;;;9.12;84.08;98625.81;4934035;29;20042;-49
2021/12/31 17:51:33;;;;;;;54.03;21.52;;;;;;;9.23;83.50;98618.19;4931259;29;20027;-50
2021/12/31 17:53:59;;;;;;;19.05;11.68;;;;;;;9.26;83.79;98633.72;4934065;29;20028;-47
2021/12/31 17:56:24;;;;;;;18.48;9.15;;;;;;;9.37;83.38;98627.03;4933854;29;20031;-51
2021/12/31 17:58:50;;;;;;;20.40;10.93;;;;;;;9.26;83.49;98630.28;4934244;29;20023;-48
2021/12/31 18:01:15;;;;;;;37.35;15.52;;;;;;;9.08;84.00;98634.75;4934217;29;20480;-47
2021/12/31 18:03:40;;;;;;;17.85;9.15;;;;;;;9.20;83.62;98634.06;4932422;29;20067;-47
2021/12/31 18:06:06;;;;;;;20.58;9.70;;;;;;;9.22;83.59;98632.22;4933959;29;20028;-48
2021/12/31 18:08:31;;;;;;;15.65;7.30;;;;;;;9.21;83.88;98619.22;4933118;29;20027;-48
2021/12/31 18:10:57;;;;;;;12.18;6.35;;;;;;;9.30;83.07;98625.72;4934175;29;20031;-48
2021/12/31 18:13:22;;;;;;;12.55;5.18;;;;;;;9.49;82.75;98623.72;4932724;29;20044;-46
2021/12/31 18:15:48;;;;;;;9.65;4.45;;;;;;;9.49;82.64;98613.25;4934199;29;20075;-51
2021/12/31 18:18:13;;;;;;;8.63;3.47;;;;;;;9.68;81.67;98619.09;4933103;29;20035;-47
2021/12/31 18:20:39;;;;;;;6.93;2.83;;;;;;;9.97;80.83;98611.28;4932713;29;20043;-48
2021/12/31 18:23:04;;;;;;;5.82;2.40;;;;;;;10.04;80.73;98615.22;4932974;29;20038;-51
2021/12/31 18:25:30;;;;;;;5.80;2.20;;;;;;;10.11;80.30;98615.72;4932998;29;20024;-47
2021/12/31 18:27:56;;;;;;;7.70;3.08;;;;;;;10.12;79.95;98586.81;4931197;29;20035;-50
2021/12/31 18:30:21;;;;;;;6.30;2.63;;;;;;;10.33;79.26;98612.69;4930787;29;20055;-47
2021/12/31 18:32:47;;;;;;;7.40;2.33;;;;;;;10.32;79.10;98605.72;4932462;29;20780;-49
2021/12/31 18:35:12;;;;;;;7.40;2.90;;;;;;;10.35;79.26;98608.16;4933292;29;20026;-50
2021/12/31 18:37:38;;;;;;;7.40;2.80;;;;;;;10.34;78.52;98614.38;4926338;29;20040;-50
2021/12/31 18:40:04;;;;;;;8.57;2.92;;;;;;;10.37;78.35;98606.31;4932854;29;20059;-49
2021/12/31 18:42:29;;;;;;;7.32;2.90;;;;;;;10.28;78.89;98612.09;4932199;29;20035;-50
2021/12/31 18:44:55;;;;;;;7.13;2.85;;;;;;;10.25;78.64;98617.50;4931905;29;20030;-48
2021/12/31 18:47:21;;;;;;;5.80;2.40;;;;;;;10.22;79.31;98619.38;4932155;29;20667;-46
2021/12/31 18:50:01;;;;;;;5.85;2.63;;;;;;;10.32;78.84;98639.81;4932877;29;20103;-46
2021/12/31 18:52:27;;;;;;;6.43;3.00;;;;;;;10.34;78.36;98640.59;4931793;29;20031;-47
2021/12/31 18:54:52;;;;;;;6.97;2.92;;;;;;;10.38;78.34;98657.81;4930376;29;20050;-50
2021/12/31 18:57:19;;;;;;;6.55;2.83;;;;;;;10.50;78.23;98661.47;4933021;29;20042;-47
2021/12/31 18:59:45;;;;;;;6.95;2.80;;;;;;;10.43;77.90;98668.88;4932845;29;20027;-50
2021/12/31 19:02:10;;;;;;;7.47;3.20;;;;;;;10.53;78.11;98663.88;4932193;29;20034;-48
2021/12/31 19:04:35;;;;;;;7.65;3.35;;;;;;;10.36;78.09;98651.84;4932062;29;20022;-48
2021/12/31 19:07:01;;;;;;;7.32;3.00;;;;;;;10.41;78.74;98660.25;4932682;29;20032;-46
2021/12/31 19:09:26;;;;;;;7.97;3.33;;;;;;;10.48;77.83;98668.59;4932526;29;20032;-50
2021/12/31 19:11:52;;;;;;;7.20;2.95;;;;;;;10.46;77.67;98673.94;4932277;29;20036;-50
2021/12/31 19:14:17;;;;;;;8.85;3.22;;;;;;;10.60;77.14;98680.97;4932381;29;20083;-51
2021/12/31 19:16:42;;;;;;;8.93;3.10;;;;;;;10.63;77.00;98686.88;4932690;29;20035;-50
2021/12/31 19:19:08;;;;;;;7.80;3.28;;;;;;;10.66;76.52;98686.66;4932566;29;20026;-50
2021/12/31 19:21:33;;;;;;;6.88;3.00;;;;;;;10.50;77.17;98693.78;4931869;29;20024;-50
2021/12/31 19:23:59;;;;;;;7.53;3.03;;;;;;;10.48;77.48;98703.53;4932030;29;20030;-48
2021/12/31 19:26:24;;;;;;;7.43;3.28;;;;;;;10.49;77.19;98718.31;4932174;29;20683;-47
2021/12/31 19:28:49;;;;;;;7.45;3.55;;;;;;;10.46;77.75;98726.41;4933027;29;20066;-49
2021/12/31 19:31:15;;;;;;;7.22;3.55;;;;;;;10.47;77.84;98728.06;4932534;29;20083;-50
2021/12/31 19:33:40;;;;;;;8.70;3.95;;;;;;;10.33;78.44;98736.75;4931288;29;20027;-47
2021/12/31 19:36:06;;;;;;;7.55;3.42;;;;;;;10.30;77.87;98730.84;4932513;29;20031;-47
2021/12/31 19:38:31;;;;;;;9.43;4.00;;;;;;;10.26;78.34;98734.59;4932046;29;20043;-47
2021/12/31 19:40:56;;;;;;;8.70;3.60;;;;;;;10.33;78.36;98746.41;4933324;29;20032;-50
2021/12/31 19:43:22;;;;;;;38.97;18.00;;;;;;;10.23;78.60;98740.81;4935330;29;20031;-47
2021/12/31 19:45:47;;;;;;;27.00;13.88;;;;;;;10.10;79.05;98738.06;4935593;29;20486;-49
2021/12/31 19:48:13;;;;;;;20.42;12.18;;;;;;;10.21;78.71;98751.38;4935988;29;20169;-48
2021/12/31 19:50:42;;;;;;;10.18;5.05;;;;;;;10.09;79.28;98744.25;4934899;29;20548;-47
2021/12/31 19:53:08;;;;;;;10.45;6.57;;;;;;;10.10;78.83;98748.53;4936434;29;20024;-49
2021/12/31 19:55:34;;;;;;;10.40;6.03;;;;;;;10.01;79.23;98756.94;4934213;29;20030;-47
2021/12/31 19:58:00;;;;;;;9.45;4.50;;;;;;;9.99;79.19;98753.56;4935706;29;20059;-50
2021/12/31 20:00:25;;;;;;;9.60;5.68;;;;;;;9.88;79.53;98750.72;4935477;29;20023;-48
2021/12/31 20:02:51;;;;;;;14.27;6.15;;;;;;;9.91;79.01;98755.75;4935554;29;20020;-48
2021/12/31 20:05:18;;;;;;;15.90;12.77;;;;;;;9.71;80.05;98749.91;4934811;29;20082;-47
2021/12/31 20:07:44;;;;;;;10.77;6.68;;;;;;;9.70;79.68;98752.59;4935555;29;20023;-47
2021/12/31 20:10:09;;;;;;;8.55;3.97;;;;;;;9.83;79.57;98760.59;4936143;29;20036;-50
2021/12/31 20:12:35;;;;;;;9.80;3.78;;;;;;;9.75;79.49;98756.66;4935521;29;20042;-47
2021/12/31 20:15:00;;;;;;;7.13;3.35;;;;;;;9.84;78.92;98764.91;4934963;29;20487;-47
2021/12/31 20:17:25;;;;;;;9.05;3.40;;;;;;;9.97;78.46;98765.91;4935120;29;20035;-46
2021/12/31 20:19:51;;;;;;;8.70;3.47;;;;;;;9.84;79.34;98770.16;4934874;29;20039;-50
2021/12/31 20:22:16;;;;;;;10.13;3.83;;;;;;;9.87;78.86;98775.22;4935454;29;20087;-49
2021/12/31 20:24:41;;;;;;;7.63;3.38;;;;;;;9.82;79.18;98785.13;4934448;29;20059;-47
2021/12/31 20:27:07;;;;;;;8.05;4.00;;;;;;;9.65;79.59;98781.66;4934039;29;20488;-46
2021/12/31 20:29:32;;;;;;;9.52;4.18;;;;;;;9.74;79.17;98796.88;4923143;29;20024;-46
2021/12/31 20:31:58;;;;;;;8.25;3.53;;;;;;;9.63;79.72;98801.00;4935446;29;20604;-48
2021/12/31 20:34:23;;;;;;;6.93;3.20;;;;;;;9.84;78.95;98802.47;4934654;29;20024;-47
2021/12/31 20:36:48;;;;;;;9.00;3.50;;;;;;;9.73;79.30;98805.66;4934997;29;20027;-47
2021/12/31 20:39:14;;;;;;;7.93;3.22;;;;;;;9.72;79.79;98803.13;4935306;29;20031;-46
2021/12/31 20:41:40;;;;;;;20.17;13.20;;;;;;;9.55;80.57;98811.06;4935757;29;20078;-49
2021/12/31 20:44:06;;;;;;;11.80;6.22;;;;;;;9.54;80.66;98815.47;4934755;29;20031;-51
2021/12/31 20:46:31;;;;;;;13.75;6.63;;;;;;;9.74;79.71;98811.75;4934295;29;20079;-49
2021/12/31 20:48:56;;;;;;;21.60;11.05;;;;;;;9.63;80.50;98814.09;4934946;29;20368;-50
2021/12/31 20:51:22;;;;;;;16.25;8.05;;;;;;;9.72;79.82;98819.69;4934597;29;20031;-48
2021/12/31 20:53:47;;;;;;;19.48;8.27;;;;;;;9.88;79.48;98811.84;4934077;29;20031;-51
2021/12/31 20:56:13;;;;;;;19.13;10.52;;;;;;;9.90;79.75;98811.72;4934757;29;20031;-48
2021/12/31 20:58:38;;;;;;;28.20;14.30;;;;;;;9.83;80.01;98815.63;4934256;29;20027;-52
2021/12/31 21:01:05;;;;;;;57.22;29.30;;;;;;;9.81;79.77;98812.25;4935005;29;20030;-51
2021/12/31 21:03:30;;;;;;;35.45;17.17;;;;;;;9.88;79.79;98819.69;4934283;29;20272;-52
2021/12/31 21:05:56;;;;;;;35.78;15.38;;;;;;;9.74;80.50;98817.84;4934559;29;20046;-49
2021/12/31 21:08:21;;;;;;;14.07;5.47;;;;;;;9.89;79.67;98821.38;4933520;29;20038;-52
2021/12/31 21:10:46;;;;;;;56.97;26.25;;;;;;;9.78;80.44;98834.22;4934902;29;20019;-46
2021/12/31 21:13:12;;;;;;;16.92;8.27;;;;;;;9.92;79.85;98838.72;4935052;29;20032;-46
2021/12/31 21:15:37;;;;;;;10.38;4.55;;;;;;;9.89;80.12;98838.88;4933453;29;20491;-47
2021/12/31 21:18:03;;;;;;;9.93;4.75;;;;;;;9.88;80.12;98840.66;4934783;29;20036;-47